.
WxDataArchive / Data Records for 2009-03-26
2009-03-25 March 2009 2009-03-27

Data Records for Thursday, 26 March 2009

Time	Temp	Chill	HIndex	Humid	Dewpt	 Wind 	HiWind	WindDir	Rain 	Barom 
-----	----	-----	------	-----	-----	------	------	-------	-----	----- 
00:00	42.9	42.9	42.9	76	35.9	0	0	---	0.00	29.882 
00:05	42.8	42.8	42.8	77	36.1	0	0	---	0.00	29.887 
00:10	42.5	42.5	42.5	77	35.8	0	0	---	0.00	29.883 
00:15	42.3	42.3	42.3	78	35.9	0	0	---	0.00	29.884 
00:20	42.2	42.2	42.2	78	35.8	0	0	---	0.00	29.890 
00:25	42.1	42.1	42.1	78	35.7	0	0	---	0.00	29.882 
00:30	41.9	41.9	41.9	79	35.9	0	0	---	0.00	29.882 
00:35	41.6	41.6	41.6	79	35.6	0	0	---	0.00	29.879 
00:40	41.3	41.3	41.3	80	35.6	0	0	---	0.00	29.881 
00:45	41.3	41.3	41.3	81	35.9	0	0	---	0.00	29.883 
00:50	41.2	41.2	41.2	81	35.8	0	0	---	0.00	29.885 
00:55	41.3	41.3	41.3	81	35.9	0	0	---	0.00	29.889 
01:00	41.3	41.3	41.3	81	35.9	0	0	---	0.00	29.884 
01:05	41.3	41.3	41.3	81	35.9	0	0	---	0.00	29.889 
01:10	41.2	41.2	41.2	81	35.8	0	0	---	0.00	29.897 
01:15	41.3	41.3	41.3	82	36.2	0	1	270	0.00	29.901 
01:20	41.5	41.5	41.5	82	36.4	0	0	---	0.00	29.902 
01:25	41.6	41.6	41.6	82	36.5	0	1	270	0.00	29.899 
01:30	41.8	41.8	41.8	81	36.4	0	1	270	0.00	29.901 
01:35	41.9	41.9	41.9	81	36.5	0	2	270	0.00	29.902 
01:40	42.1	42.1	42.1	81	36.7	0	2	270	0.00	29.908 
01:45	42.1	42.1	42.1	80	36.4	0	2	270	0.00	29.915 
01:50	41.9	41.9	41.9	78	35.5	1	4	338	0.00	29.914 
01:55	41.8	41.8	41.8	77	35.1	0	2	338	0.00	29.906 
02:00	41.5	41.5	41.5	77	34.8	0	2	338	0.00	29.897 
02:05	41.2	41.2	41.2	77	34.5	0	2	0	0.00	29.888 
02:10	41.1	41.1	41.1	77	34.4	0	1	0	0.00	29.888 
02:15	40.8	40.8	40.8	77	34.2	0	0	---	0.00	29.895 
02:20	40.5	40.5	40.5	77	33.9	0	1	0	0.00	29.896 
02:25	40.3	40.3	40.3	78	34.0	0	0	---	0.00	29.899 
02:30	40.1	40.1	40.1	78	33.8	0	0	---	0.00	29.912 
02:35	39.8	39.8	39.8	79	33.8	0	0	---	0.00	29.920 
02:40	39.6	39.6	39.6	80	33.9	0	1	0	0.00	29.925 
02:45	39.5	39.5	39.5	80	33.9	0	0	---	0.00	29.920 
02:50	39.5	39.5	39.5	81	34.2	0	0	---	0.00	29.916 
02:55	39.5	39.5	39.5	81	34.2	0	1	0	0.00	29.912 
03:00	39.6	39.6	39.6	81	34.3	0	1	0	0.00	29.910 
03:05	39.9	39.9	39.9	81	34.6	0	2	292	0.00	29.911 
03:10	40.1	40.1	40.1	80	34.4	0	1	292	0.00	29.915 
03:15	40.2	40.2	40.2	79	34.2	0	1	292	0.00	29.910 
03:20	40.3	40.3	40.3	78	34.0	0	2	292	0.00	29.904 
03:25	40.5	40.5	40.5	77	33.9	0	2	270	0.00	29.899 
03:30	40.5	40.5	40.5	77	33.9	0	1	270	0.00	29.898 
03:35	40.3	40.3	40.3	77	33.7	0	1	270	0.00	29.896 
03:40	40.2	40.2	40.2	77	33.6	0	1	270	0.00	29.892 
03:45	40.1	40.1	40.1	77	33.5	0	1	270	0.00	29.894 
03:50	40.1	40.1	40.1	77	33.5	0	1	270	0.00	29.890 
03:55	39.9	39.9	39.9	78	33.6	0	0	---	0.00	29.885 
04:00	39.8	39.8	39.8	78	33.5	0	0	---	0.00	29.893 
04:05	39.6	39.6	39.6	79	33.6	0	0	---	0.00	29.893 
04:10	39.5	39.5	39.5	79	33.5	0	0	---	0.00	29.895 
04:15	39.3	39.3	39.3	79	33.3	0	0	---	0.00	29.910 
04:20	39.2	39.2	39.2	80	33.6	0	0	---	0.00	29.912 
04:25	39.1	39.1	39.1	80	33.5	0	0	---	0.00	29.914 
04:30	38.9	38.9	38.9	80	33.3	0	0	---	0.00	29.917 
04:35	38.8	38.8	38.8	81	33.5	0	0	---	0.00	29.915 
04:40	38.8	38.8	38.8	81	33.5	0	0	---	0.00	29.917 
04:45	38.6	38.6	38.6	81	33.3	0	0	---	0.00	29.914 
04:50	38.6	38.6	38.6	82	33.6	0	0	---	0.00	29.911 
04:55	38.6	38.6	38.6	82	33.6	0	0	---	0.00	29.909 
05:00	38.5	38.5	38.5	82	33.5	0	0	---	0.00	29.908 
05:05	38.5	38.5	38.5	82	33.5	0	0	---	0.00	29.905 
05:10	38.6	38.6	38.6	82	33.6	0	0	---	0.00	29.900 
05:15	38.6	38.6	38.6	82	33.6	0	0	---	0.00	29.904 
05:20	38.6	38.6	38.6	82	33.6	0	0	---	0.00	29.906 
05:25	38.8	38.8	38.8	83	34.1	0	0	---	0.00	29.904 
05:30	38.8	38.8	38.8	83	34.1	0	0	---	0.00	29.906 
05:35	38.8	38.8	38.8	83	34.1	0	0	---	0.00	29.907 
05:40	38.8	38.8	38.8	83	34.1	0	0	---	0.00	29.909 
05:45	38.8	38.8	38.8	83	34.1	0	0	---	0.00	29.907 
05:50	38.8	38.8	38.8	83	34.1	0	0	---	0.00	29.906 
05:55	38.8	38.8	38.8	83	34.1	0	0	---	0.00	29.908 
06:00	38.8	38.8	38.8	83	34.1	0	0	---	0.00	29.909 
06:05	38.8	38.8	38.8	83	34.1	0	0	---	0.00	29.902 
06:10	38.8	38.8	38.8	83	34.1	0	0	---	0.00	29.897 
06:15	38.8	38.8	38.8	83	34.1	0	0	---	0.00	29.898 
06:20	38.9	38.9	38.9	84	34.5	0	0	---	0.00	29.898 
06:25	38.9	38.9	38.9	84	34.5	0	0	---	0.00	29.894 
06:30	38.9	38.9	38.9	84	34.5	0	0	---	0.00	29.896 
06:35	38.9	38.9	38.9	84	34.5	0	0	---	0.00	29.895 
06:40	38.9	38.9	38.9	83	34.2	0	0	---	0.00	29.896 
06:45	38.9	38.9	38.9	83	34.2	0	1	270	0.00	29.893 
06:50	38.9	38.9	38.9	83	34.2	0	0	---	0.00	29.886 
06:55	39.1	39.1	39.1	84	34.7	0	0	---	0.00	29.887 
07:00	39.2	39.2	39.2	83	34.5	0	1	270	0.00	29.886 
07:05	39.3	39.3	39.3	83	34.6	0	1	270	0.00	29.888 
07:10	39.3	39.3	39.3	83	34.6	0	0	---	0.00	29.884 
07:15	39.5	39.5	39.5	83	34.8	0	1	270	0.00	29.889 
07:20	39.5	39.5	39.5	83	34.8	0	1	270	0.00	29.882 
07:25	39.6	39.6	39.6	82	34.6	0	1	270	0.00	29.888 
07:30	39.8	39.8	39.8	81	34.5	0	1	270	0.00	29.873 
07:35	39.9	39.9	39.9	80	34.2	0	2	292	0.00	29.867 
07:40	40.1	40.1	40.1	80	34.4	0	3	292	0.00	29.865 
07:45	40.1	40.1	40.1	79	34.1	1	4	0	0.00	29.858 
07:50	40.1	40.1	40.1	79	34.1	1	3	22	0.00	29.858 
07:55	40.3	40.3	40.3	77	33.7	0	2	22	0.00	29.856 
08:00	40.6	40.6	40.6	76	33.6	1	5	112	0.00	29.856 
08:05	40.9	40.9	40.9	76	33.9	1	4	112	0.00	29.857 
08:10	41.1	41.1	41.1	75	33.8	1	3	90	0.00	29.870 
08:15	41.3	41.3	41.3	74	33.6	1	3	90	0.00	29.877 
08:20	41.6	41.6	41.6	75	34.3	1	3	90	0.00	29.885 
08:25	41.6	41.6	41.6	75	34.3	1	3	135	0.00	29.887 
08:30	41.8	41.8	41.8	77	35.1	1	4	135	0.00	29.885 
08:35	41.6	41.6	41.6	77	34.9	1	3	112	0.00	29.887 
08:40	41.6	41.6	41.6	76	34.6	1	3	135	0.00	29.885 
08:45	41.8	41.8	41.8	76	34.8	2	4	90	0.00	29.880 
08:50	41.9	41.9	41.9	75	34.6	1	4	112	0.00	29.881 
08:55	42.2	42.2	42.2	73	34.2	1	5	112	0.00	29.885 
09:00	42.3	42.3	42.3	75	35.0	1	3	90	0.00	29.884 
09:05	42.5	42.5	42.5	76	35.5	1	2	112	0.00	29.889 
09:10	42.6	42.6	42.6	75	35.2	0	2	112	0.00	29.897 
09:15	42.5	42.5	42.5	74	34.8	1	3	292	0.00	29.906 
09:20	42.5	42.5	42.5	76	35.5	0	1	292	0.00	29.909 
09:25	42.6	42.6	42.6	74	34.9	0	2	292	0.00	29.914 
09:30	42.9	42.9	42.9	74	35.2	0	2	292	0.00	29.917 
09:35	43.2	43.2	43.2	73	35.1	0	2	248	0.00	29.916 
09:40	43.5	43.5	43.5	72	35.1	0	2	248	0.00	29.916 
09:45	43.8	43.8	43.8	71	35.0	0	1	248	0.00	29.915 
09:50	44.2	44.2	44.2	71	35.4	1	3	90	0.00	29.913 
09:55	44.3	44.3	44.3	68	34.4	1	3	90	0.00	29.919 
10:00	44.3	44.3	44.3	69	34.8	0	2	90	0.00	29.920 
10:05	44.5	44.5	44.5	69	35.0	0	3	225	0.00	29.921 
10:10	44.9	44.9	44.9	68	35.0	1	2	112	0.00	29.923 
10:15	45.5	45.5	45.5	67	35.2	1	3	112	0.00	29.921 
10:20	46.2	46.2	46.2	65	35.1	1	3	112	0.00	29.919 
10:25	46.8	46.8	46.8	65	35.7	1	5	112	0.00	29.919 
10:30	47.4	47.4	47.4	64	35.8	0	2	270	0.00	29.921 
10:35	47.7	47.7	47.7	63	35.7	0	2	270	0.00	29.918 
10:40	47.7	47.7	47.7	62	35.3	2	5	112	0.00	29.917 
10:45	47.9	47.9	47.9	63	35.9	0	3	112	0.00	29.917 
10:50	48.5	48.5	48.5	63	36.5	1	4	68	0.00	29.917 
10:55	48.8	48.8	48.8	60	35.5	1	2	68	0.00	29.916 
11:00	49.2	49.2	49.2	57	34.6	0	2	68	0.00	29.914 
11:05	50.1	50.1	50.1	58	35.9	1	3	68	0.00	29.915 
11:10	50.4	50.4	50.4	55	34.8	0	2	315	0.00	29.916 
11:15	50.2	50.2	50.2	55	34.7	1	2	315	0.00	29.915 
11:20	50.2	50.2	50.2	54	34.2	0	2	315	0.00	29.914 
11:25	50.5	50.5	50.5	52	33.5	0	1	315	0.00	29.916 
11:30	50.7	50.7	50.7	53	34.2	0	1	315	0.00	29.916 
11:35	51.0	51.0	51.0	54	34.9	1	3	315	0.00	29.916 
11:40	51.3	51.3	51.3	54	35.2	1	3	225	0.00	29.915 
11:45	51.6	51.6	51.6	54	35.5	1	3	225	0.00	29.915 
11:50	51.7	51.7	51.7	53	35.1	1	2	292	0.00	29.915 
11:55	51.7	51.7	51.7	51	34.2	1	3	248	0.00	29.916 
12:00	51.9	51.9	51.9	52	34.8	1	3	248	0.00	29.917 
12:05	52.3	52.3	52.3	52	35.2	0	3	248	0.00	29.919 
12:10	52.6	52.6	52.6	51	35.0	1	3	270	0.00	29.917 
12:15	52.9	52.9	52.9	51	35.3	2	4	248	0.00	29.917 
12:20	53.1	53.1	53.1	49	34.4	2	5	270	0.00	29.917 
12:25	52.9	52.9	52.9	51	35.3	2	5	270	0.00	29.917 
12:30	53.2	53.2	53.2	54	37.0	1	4	270	0.00	29.917 
12:35	53.5	53.5	53.5	49	34.8	2	5	248	0.00	29.912 
12:40	53.8	53.8	53.8	50	35.6	2	7	248	0.00	29.910 
12:45	53.8	53.8	53.8	50	35.6	1	4	22	0.00	29.912 
12:50	53.9	53.9	53.9	46	33.6	1	4	315	0.00	29.912 
12:55	54.1	54.1	54.1	48	34.8	1	4	270	0.00	29.911 
13:00	54.2	54.2	54.2	50	36.0	2	5	338	0.00	29.906 
13:05	54.7	54.7	54.7	45	33.8	1	4	0	0.00	29.902 
13:10	54.7	54.7	54.7	45	33.8	1	5	292	0.00	29.900 
13:15	54.7	54.7	54.7	48	35.4	1	2	292	0.00	29.900 
13:20	55.0	55.0	55.0	46	34.6	1	3	248	0.00	29.900 
13:25	55.1	55.1	55.1	44	33.6	2	5	270	0.00	29.903 
13:30	55.0	55.0	55.0	45	34.1	2	5	22	0.00	29.902 
13:35	55.1	55.1	55.1	48	35.8	1	4	248	0.00	29.902 
13:40	55.6	55.6	55.6	45	34.6	2	5	270	0.00	29.906 
13:45	55.7	55.7	55.7	45	34.7	2	5	292	0.00	29.898 
13:50	56.0	56.0	56.0	46	35.5	2	4	248	0.00	29.897 
13:55	56.0	56.0	56.0	44	34.4	2	5	315	0.00	29.894 
14:00	56.0	56.0	56.0	38	30.8	3	6	315	0.00	29.896 
14:05	56.0	56.0	56.0	37	30.1	2	9	338	0.00	29.895 
14:10	55.7	55.7	55.7	37	29.8	2	9	270	0.00	29.895 
14:15	55.7	55.7	55.7	42	33.0	1	4	338	0.00	29.892 
14:20	56.2	56.2	56.2	37	30.3	1	3	270	0.00	29.893 
14:25	56.2	56.2	56.2	40	32.2	2	5	270	0.00	29.889 
14:30	56.3	56.3	56.3	41	32.9	1	4	315	0.00	29.888 
14:35	56.3	56.3	56.3	42	33.5	1	4	315	0.00	29.890 
14:40	56.3	56.3	56.3	39	31.7	2	5	270	0.00	29.888 
14:45	56.5	56.5	56.5	41	33.1	2	5	0	0.00	29.888 
14:50	56.6	56.6	56.6	39	31.9	1	3	0	0.00	29.887 
14:55	56.5	56.5	56.5	39	31.8	1	4	338	0.00	29.886 
15:00	56.6	56.6	56.6	42	33.8	1	3	270	0.00	29.889 
15:05	56.7	56.7	56.7	41	33.3	1	3	270	0.00	29.893 
15:10	56.7	56.7	56.7	39	32.0	1	4	338	0.00	29.890 
15:15	56.9	56.9	56.9	42	34.0	1	4	338	0.00	29.894 
15:20	57.0	57.0	57.0	41	33.5	1	4	270	0.00	29.889 
15:25	57.0	57.0	57.0	41	33.5	1	4	22	0.00	29.889 
15:30	57.3	57.3	57.3	40	33.2	2	4	270	0.00	29.892 
15:35	57.3	57.3	57.3	39	32.6	1	3	338	0.00	29.893 
15:40	57.3	57.3	57.3	40	33.2	1	3	338	0.00	29.898 
15:45	58.1	58.1	58.1	40	33.9	1	3	248	0.00	29.900 
15:50	58.0	58.0	58.0	39	33.2	1	2	338	0.00	29.899 
15:55	57.2	57.2	57.2	39	32.5	2	4	338	0.00	29.905 
16:00	56.6	56.6	56.6	39	31.9	2	3	270	0.00	29.909 
16:05	56.3	56.3	56.3	40	32.3	1	4	270	0.00	29.912 
16:10	56.3	56.3	56.3	40	32.3	1	3	270	0.00	29.913 
16:15	56.7	56.7	56.7	38	31.4	2	6	270	0.00	29.913 
16:20	56.6	56.6	56.6	40	32.6	2	5	270	0.00	29.912 
16:25	56.7	56.7	56.7	40	32.7	1	4	315	0.00	29.909 
16:30	57.0	57.0	57.0	40	32.9	0	3	248	0.00	29.907 
16:35	57.3	57.3	57.3	39	32.6	2	4	270	0.00	29.909 
16:40	57.3	57.3	57.3	39	32.6	1	4	270	0.00	29.912 
16:45	57.2	57.2	57.2	39	32.5	1	3	315	0.00	29.914 
16:50	56.9	56.9	56.9	39	32.2	1	4	292	0.00	29.915 
16:55	56.9	56.9	56.9	40	32.8	1	5	270	0.00	29.915 
17:00	56.9	56.9	56.9	38	31.6	1	7	248	0.00	29.917 
17:05	56.6	56.6	56.6	39	31.9	1	4	315	0.00	29.919 
17:10	56.5	56.5	56.5	39	31.8	1	4	338	0.00	29.921 
17:15	56.5	56.5	56.5	40	32.5	1	4	270	0.00	29.928 
17:20	56.2	56.2	56.2	39	31.6	1	5	248	0.00	29.931 
17:25	55.6	55.6	55.6	41	32.3	1	6	270	0.00	29.931 
17:30	55.6	55.6	55.6	41	32.3	1	5	315	0.00	29.931 
17:35	55.7	55.7	55.7	41	32.4	1	4	270	0.00	29.932 
17:40	55.7	55.7	55.7	41	32.4	1	6	292	0.00	29.933 
17:45	55.9	55.9	55.9	42	33.1	1	5	270	0.00	29.934 
17:50	55.7	55.7	55.7	41	32.4	0	2	270	0.00	29.935 
17:55	55.6	55.6	55.6	40	31.7	1	4	270	0.00	29.940 
18:00	55.3	55.3	55.3	41	32.0	1	4	248	0.00	29.943 
18:05	55.3	55.3	55.3	42	32.6	0	1	248	0.00	29.946 
18:10	55.4	55.4	55.4	42	32.7	1	4	270	0.00	29.946 
18:15	55.3	55.3	55.3	42	32.6	0	2	270	0.00	29.946 
18:20	55.1	55.1	55.1	42	32.4	0	2	270	0.00	29.947 
18:25	54.7	54.7	54.7	43	32.6	0	3	270	0.00	29.949 
18:30	54.4	54.4	54.4	43	32.4	0	2	292	0.00	29.948 
18:35	54.1	54.1	54.1	43	32.1	0	1	292	0.00	29.949 
18:40	53.8	53.8	53.8	44	32.4	0	0	---	0.00	29.950 
18:45	53.5	53.5	53.5	44	32.1	0	1	292	0.00	29.952 
18:50	53.1	53.1	53.1	44	31.8	0	1	292	0.00	29.952 
18:55	52.8	52.8	52.8	45	32.1	0	0	---	0.00	29.951 
19:00	52.3	52.3	52.3	45	31.6	0	0	---	0.00	29.954 
19:05	51.7	51.7	51.7	46	31.6	0	0	---	0.00	29.952 
19:10	51.3	51.3	51.3	47	31.8	0	0	---	0.00	29.953 
19:15	50.8	50.8	50.8	48	31.8	0	0	---	0.00	29.954 
19:20	50.2	50.2	50.2	50	32.3	0	0	---	0.00	29.956 
19:25	49.8	49.8	49.8	51	32.4	0	0	---	0.00	29.958 
19:30	49.2	49.2	49.2	52	32.3	0	0	---	0.00	29.961 
19:35	48.6	48.6	48.6	53	32.3	0	0	---	0.00	29.965 
19:40	47.9	47.9	47.9	54	32.1	0	0	---	0.00	29.970 
19:45	47.3	47.3	47.3	55	32.0	0	0	---	0.00	29.969 
19:50	46.7	46.7	46.7	56	31.8	0	0	---	0.00	29.970 
19:55	46.1	46.1	46.1	57	31.7	0	0	---	0.00	29.972 
20:00	45.5	45.5	45.5	58	31.6	0	0	---	0.00	29.974 
20:05	45.1	45.1	45.1	58	31.2	0	0	---	0.00	29.977 
20:10	44.6	44.6	44.6	60	31.6	0	0	---	0.00	29.980 
20:15	44.2	44.2	44.2	61	31.6	0	0	---	0.00	29.985 
20:20	43.8	43.8	43.8	62	31.6	0	0	---	0.00	29.987 
20:25	43.5	43.5	43.5	63	31.8	0	0	---	0.00	29.987 
20:30	43.1	43.1	43.1	64	31.8	0	0	---	0.00	29.987 
20:35	42.8	42.8	42.8	65	31.9	0	0	---	0.00	29.988 
20:40	42.5	42.5	42.5	65	31.6	0	0	---	0.00	29.989 
20:45	42.3	42.3	42.3	66	31.8	0	0	---	0.00	29.988 
20:50	42.2	42.2	42.2	66	31.7	0	0	---	0.00	29.988 
20:55	41.9	41.9	41.9	67	31.8	0	0	---	0.00	29.989 
21:00	41.6	41.6	41.6	68	31.8	0	0	---	0.00	29.989 
21:05	41.3	41.3	41.3	69	31.9	0	0	---	0.00	29.988 
21:10	41.1	41.1	41.1	69	31.7	0	0	---	0.00	29.990 
21:15	40.8	40.8	40.8	70	31.8	0	0	---	0.00	29.993 
21:20	40.6	40.6	40.6	71	31.9	0	0	---	0.00	29.993 
21:25	40.6	40.6	40.6	71	31.9	0	0	---	0.00	29.993 
21:30	40.6	40.6	40.6	71	31.9	0	0	---	0.00	29.996 
21:35	40.5	40.5	40.5	71	31.8	0	0	---	0.00	30.000 
21:40	40.2	40.2	40.2	72	31.9	0	0	---	0.00	30.003 
21:45	39.9	39.9	39.9	72	31.6	0	0	---	0.00	30.005 
21:50	39.6	39.6	39.6	73	31.7	0	0	---	0.00	30.003 
21:55	39.3	39.3	39.3	73	31.4	0	0	---	0.00	30.000 
22:00	39.2	39.2	39.2	74	31.6	0	0	---	0.00	29.996 
22:05	38.9	38.9	38.9	74	31.3	0	0	---	0.00	29.992 
22:10	38.8	38.8	38.8	75	31.6	0	0	---	0.00	29.995 
22:15	38.5	38.5	38.5	75	31.3	0	0	---	0.00	29.996 
22:20	38.3	38.3	38.3	76	31.4	0	0	---	0.00	29.996 
22:25	38.2	38.2	38.2	77	31.6	0	0	---	0.00	29.993 
22:30	38.0	38.0	38.0	77	31.4	0	0	---	0.00	29.992 
22:35	37.9	37.9	37.9	77	31.3	0	0	---	0.00	29.993 
22:40	37.6	37.6	37.6	78	31.4	0	0	---	0.00	29.994 
22:45	37.6	37.6	37.6	78	31.4	0	0	---	0.00	29.992 
22:50	37.5	37.5	37.5	79	31.6	0	0	---	0.00	29.990 
22:55	37.3	37.3	37.3	79	31.4	0	0	---	0.00	29.990 
23:00	37.2	37.2	37.2	79	31.3	0	0	---	0.00	29.989 
23:05	37.0	37.0	37.0	79	31.1	0	0	---	0.00	29.986 
23:10	36.9	36.9	36.9	80	31.3	0	0	---	0.00	29.985 
23:15	36.8	36.8	36.8	80	31.2	0	0	---	0.00	29.983 
23:20	36.8	36.8	36.8	81	31.5	0	0	---	0.00	29.982 
23:25	36.8	36.8	36.8	81	31.5	0	0	---	0.00	29.981 
23:30	36.8	36.8	36.8	81	31.5	0	0	---	0.00	29.981 
23:35	36.6	36.6	36.6	81	31.3	0	0	---	0.00	29.978 
23:40	36.5	36.5	36.5	81	31.2	0	0	---	0.00	29.975 
23:45	36.3	36.3	36.3	81	31.0	0	0	---	0.00	29.974 
23:50	36.2	36.2	36.2	82	31.2	0	0	---	0.00	29.974 
23:55	35.9	35.9	35.9	82	31.0	0	0	---	0.00	29.977 

CoCoRaHS
IN-AL-39
A2 Web Hosting
Creative Commons License
GoDaddy
search engine by freefind advanced

loaded 2018-11-15 18:24:43 • last modified 2010-11-18 10:43:29
Privacy PolicyDisclaimer
• wx.awcolley.com is powered by PmWiki v.2002016 •
• all content (unless otherwise noted) © 2018 A W Colley